sensor_id;sensor_type;location;lat;lon;timestamp;P1;durP1;ratioP1;P2;durP2;ratioP2
78750;SDS011;68070;50.954;11.060;2023-11-21T00:01:57;4.00;;;1.30;;
78750;SDS011;68070;50.954;11.060;2023-11-21T00:04:23;1.80;;;1.10;;
78750;SDS011;68070;50.954;11.060;2023-11-21T00:06:48;3.00;;;1.60;;
78750;SDS011;68070;50.954;11.060;2023-11-21T00:09:14;2.90;;;1.60;;
78750;SDS011;68070;50.954;11.060;2023-11-21T00:11:44;2.80;;;1.20;;
78750;SDS011;68070;50.954;11.060;2023-11-21T00:14:10;2.50;;;1.50;;
78750;SDS011;68070;50.954;11.060;2023-11-21T00:16:36;4.00;;;1.30;;
78750;SDS011;68070;50.954;11.060;2023-11-21T00:19:02;2.40;;;1.60;;
78750;SDS011;68070;50.954;11.060;2023-11-21T00:21:27;2.70;;;1.40;;
78750;SDS011;68070;50.954;11.060;2023-11-21T00:23:55;2.80;;;1.20;;
78750;SDS011;68070;50.954;11.060;2023-11-21T00:26:21;2.90;;;1.30;;
78750;SDS011;68070;50.954;11.060;2023-11-21T00:28:47;3.70;;;1.60;;
78750;SDS011;68070;50.954;11.060;2023-11-21T00:31:13;3.40;;;1.70;;
78750;SDS011;68070;50.954;11.060;2023-11-21T00:33:38;2.20;;;1.60;;
78750;SDS011;68070;50.954;11.060;2023-11-21T00:36:04;4.40;;;1.70;;
78750;SDS011;68070;50.954;11.060;2023-11-21T00:38:35;1.70;;;1.20;;
78750;SDS011;68070;50.954;11.060;2023-11-21T00:41:01;2.70;;;1.70;;
78750;SDS011;68070;50.954;11.060;2023-11-21T00:43:26;2.20;;;1.40;;
78750;SDS011;68070;50.954;11.060;2023-11-21T00:45:51;3.80;;;1.40;;
78750;SDS011;68070;50.954;11.060;2023-11-21T00:48:17;3.60;;;1.50;;
78750;SDS011;68070;50.954;11.060;2023-11-21T00:50:43;2.30;;;1.40;;
78750;SDS011;68070;50.954;11.060;2023-11-21T00:53:09;2.50;;;1.60;;
78750;SDS011;68070;50.954;11.060;2023-11-21T00:55:36;2.10;;;1.50;;
78750;SDS011;68070;50.954;11.060;2023-11-21T00:58:01;2.70;;;1.60;;
78750;SDS011;68070;50.954;11.060;2023-11-21T01:00:29;3.00;;;2.00;;
78750;SDS011;68070;50.954;11.060;2023-11-21T01:02:55;3.30;;;1.50;;
78750;SDS011;68070;50.954;11.060;2023-11-21T01:05:20;4.90;;;1.60;;
78750;SDS011;68070;50.954;11.060;2023-11-21T01:07:46;6.10;;;2.40;;
78750;SDS011;68070;50.954;11.060;2023-11-21T01:10:11;4.50;;;2.00;;
78750;SDS011;68070;50.954;11.060;2023-11-21T01:12:38;4.70;;;1.80;;
78750;SDS011;68070;50.954;11.060;2023-11-21T01:15:05;3.60;;;1.60;;
78750;SDS011;68070;50.954;11.060;2023-11-21T01:17:38;3.30;;;1.60;;
78750;SDS011;68070;50.954;11.060;2023-11-21T01:20:04;3.10;;;1.40;;
78750;SDS011;68070;50.954;11.060;2023-11-21T01:22:36;2.10;;;1.40;;
78750;SDS011;68070;50.954;11.060;2023-11-21T01:25:01;2.00;;;1.40;;
78750;SDS011;68070;50.954;11.060;2023-11-21T01:27:29;2.20;;;1.50;;
78750;SDS011;68070;50.954;11.060;2023-11-21T01:29:55;4.40;;;1.70;;
78750;SDS011;68070;50.954;11.060;2023-11-21T01:32:21;2.10;;;1.40;;
78750;SDS011;68070;50.954;11.060;2023-11-21T01:34:47;1.70;;;1.30;;
78750;SDS011;68070;50.954;11.060;2023-11-21T01:37:13;2.10;;;1.50;;
78750;SDS011;68070;50.954;11.060;2023-11-21T01:39:39;2.70;;;1.30;;
78750;SDS011;68070;50.954;11.060;2023-11-21T01:42:05;3.20;;;1.70;;
78750;SDS011;68070;50.954;11.060;2023-11-21T01:44:31;4.30;;;1.60;;
78750;SDS011;68070;50.954;11.060;2023-11-21T01:46:56;1.80;;;1.40;;
78750;SDS011;68070;50.954;11.060;2023-11-21T01:49:22;3.50;;;1.60;;
78750;SDS011;68070;50.954;11.060;2023-11-21T01:51:48;2.30;;;1.40;;
78750;SDS011;68070;50.954;11.060;2023-11-21T01:54:16;2.10;;;1.20;;
78750;SDS011;68070;50.954;11.060;2023-11-21T01:56:43;2.70;;;1.30;;
78750;SDS011;68070;50.954;11.060;2023-11-21T01:59:11;3.60;;;1.60;;
78750;SDS011;68070;50.954;11.060;2023-11-21T02:01:39;3.20;;;1.40;;
78750;SDS011;68070;50.954;11.060;2023-11-21T02:04:05;3.50;;;1.80;;
78750;SDS011;68070;50.954;11.060;2023-11-21T02:06:34;3.40;;;1.50;;
78750;SDS011;68070;50.954;11.060;2023-11-21T02:08:59;3.60;;;1.50;;
78750;SDS011;68070;50.954;11.060;2023-11-21T02:11:26;2.70;;;1.60;;
78750;SDS011;68070;50.954;11.060;2023-11-21T02:13:53;4.40;;;1.60;;
78750;SDS011;68070;50.954;11.060;2023-11-21T02:16:19;2.70;;;1.40;;
78750;SDS011;68070;50.954;11.060;2023-11-21T02:18:47;4.60;;;1.60;;
78750;SDS011;68070;50.954;11.060;2023-11-21T02:21:14;6.10;;;1.90;;
78750;SDS011;68070;50.954;11.060;2023-11-21T02:23:39;2.70;;;1.60;;
78750;SDS011;68070;50.954;11.060;2023-11-21T02:26:09;2.80;;;1.80;;
78750;SDS011;68070;50.954;11.060;2023-11-21T02:28:35;3.20;;;1.30;;
78750;SDS011;68070;50.954;11.060;2023-11-21T02:31:01;5.50;;;2.10;;
78750;SDS011;68070;50.954;11.060;2023-11-21T02:33:28;2.60;;;1.50;;
78750;SDS011;68070;50.954;11.060;2023-11-21T02:35:53;2.40;;;1.50;;
78750;SDS011;68070;50.954;11.060;2023-11-21T02:38:20;3.20;;;1.80;;
78750;SDS011;68070;50.954;11.060;2023-11-21T02:40:46;2.80;;;1.40;;
78750;SDS011;68070;50.954;11.060;2023-11-21T02:43:13;3.50;;;1.60;;
78750;SDS011;68070;50.954;11.060;2023-11-21T02:45:38;4.30;;;1.50;;
78750;SDS011;68070;50.954;11.060;2023-11-21T02:48:03;5.90;;;2.00;;
78750;SDS011;68070;50.954;11.060;2023-11-21T02:50:31;4.50;;;1.70;;
78750;SDS011;68070;50.954;11.060;2023-11-21T02:52:56;2.90;;;1.40;;
78750;SDS011;68070;50.954;11.060;2023-11-21T02:55:23;3.20;;;1.90;;
78750;SDS011;68070;50.954;11.060;2023-11-21T02:57:52;4.90;;;1.70;;
78750;SDS011;68070;50.954;11.060;2023-11-21T03:00:18;2.80;;;1.80;;
78750;SDS011;68070;50.954;11.060;2023-11-21T03:02:43;5.00;;;1.70;;
78750;SDS011;68070;50.954;11.060;2023-11-21T03:05:09;2.70;;;1.60;;
78750;SDS011;68070;50.954;11.060;2023-11-21T03:07:36;2.70;;;1.80;;
78750;SDS011;68070;50.954;11.060;2023-11-21T03:10:02;2.80;;;1.40;;
78750;SDS011;68070;50.954;11.060;2023-11-21T03:12:29;3.30;;;2.00;;
78750;SDS011;68070;50.954;11.060;2023-11-21T03:14:55;3.10;;;1.60;;
78750;SDS011;68070;50.954;11.060;2023-11-21T03:17:20;4.70;;;1.40;;
78750;SDS011;68070;50.954;11.060;2023-11-21T03:19:46;4.80;;;1.50;;
78750;SDS011;68070;50.954;11.060;2023-11-21T03:22:12;3.80;;;1.80;;
78750;SDS011;68070;50.954;11.060;2023-11-21T03:24:37;2.70;;;1.50;;
78750;SDS011;68070;50.954;11.060;2023-11-21T03:27:04;2.70;;;1.30;;
78750;SDS011;68070;50.954;11.060;2023-11-21T03:29:30;3.20;;;1.70;;
78750;SDS011;68070;50.954;11.060;2023-11-21T03:31:56;3.30;;;1.60;;
78750;SDS011;68070;50.954;11.060;2023-11-21T03:34:25;4.90;;;2.10;;
78750;SDS011;68070;50.954;11.060;2023-11-21T03:36:51;2.40;;;1.70;;
78750;SDS011;68070;50.954;11.060;2023-11-21T03:39:18;4.40;;;1.90;;
78750;SDS011;68070;50.954;11.060;2023-11-21T03:41:45;3.20;;;1.80;;
78750;SDS011;68070;50.954;11.060;2023-11-21T03:44:11;6.00;;;1.90;;
78750;SDS011;68070;50.954;11.060;2023-11-21T03:46:36;2.00;;;1.50;;
78750;SDS011;68070;50.954;11.060;2023-11-21T03:49:02;2.20;;;1.30;;
78750;SDS011;68070;50.954;11.060;2023-11-21T03:51:27;2.70;;;1.50;;
78750;SDS011;68070;50.954;11.060;2023-11-21T03:53:54;3.30;;;1.80;;
78750;SDS011;68070;50.954;11.060;2023-11-21T03:56:19;3.10;;;2.00;;
78750;SDS011;68070;50.954;11.060;2023-11-21T03:58:47;3.20;;;2.20;;
78750;SDS011;68070;50.954;11.060;2023-11-21T04:01:23;4.60;;;1.90;;
78750;SDS011;68070;50.954;11.060;2023-11-21T04:03:49;3.40;;;2.10;;
78750;SDS011;68070;50.954;11.060;2023-11-21T04:06:16;4.60;;;1.90;;
78750;SDS011;68070;50.954;11.060;2023-11-21T04:08:45;3.00;;;2.20;;
78750;SDS011;68070;50.954;11.060;2023-11-21T04:11:11;4.30;;;2.10;;
78750;SDS011;68070;50.954;11.060;2023-11-21T04:13:38;5.10;;;2.70;;
78750;SDS011;68070;50.954;11.060;2023-11-21T04:16:07;3.40;;;2.20;;
78750;SDS011;68070;50.954;11.060;2023-11-21T04:18:34;5.80;;;2.70;;
78750;SDS011;68070;50.954;11.060;2023-11-21T04:21:01;4.50;;;2.50;;
78750;SDS011;68070;50.954;11.060;2023-11-21T04:23:28;5.90;;;2.10;;
78750;SDS011;68070;50.954;11.060;2023-11-21T04:25:54;3.60;;;2.90;;
78750;SDS011;68070;50.954;11.060;2023-11-21T04:28:21;2.70;;;1.80;;
78750;SDS011;68070;50.954;11.060;2023-11-21T04:33:11;4.40;;;2.00;;
78750;SDS011;68070;50.954;11.060;2023-11-21T04:38:02;2.50;;;1.70;;
78750;SDS011;68070;50.954;11.060;2023-11-21T04:42:53;2.50;;;1.70;;
78750;SDS011;68070;50.954;11.060;2023-11-21T04:45:22;4.30;;;2.10;;
78750;SDS011;68070;50.954;11.060;2023-11-21T04:47:47;6.20;;;2.60;;
78750;SDS011;68070;50.954;11.060;2023-11-21T04:52:38;4.30;;;2.00;;
78750;SDS011;68070;50.954;11.060;2023-11-21T04:55:04;7.70;;;2.50;;
78750;SDS011;68070;50.954;11.060;2023-11-21T04:57:32;5.60;;;3.40;;
78750;SDS011;68070;50.954;11.060;2023-11-21T05:02:23;5.80;;;2.90;;
78750;SDS011;68070;50.954;11.060;2023-11-21T05:04:48;4.90;;;2.90;;
78750;SDS011;68070;50.954;11.060;2023-11-21T05:07:14;4.10;;;2.30;;
78750;SDS011;68070;50.954;11.060;2023-11-21T05:09:42;3.60;;;2.60;;
78750;SDS011;68070;50.954;11.060;2023-11-21T05:12:10;3.80;;;2.20;;
78750;SDS011;68070;50.954;11.060;2023-11-21T05:14:36;3.60;;;2.70;;
78750;SDS011;68070;50.954;11.060;2023-11-21T05:19:27;4.30;;;2.40;;
78750;SDS011;68070;50.954;11.060;2023-11-21T05:21:53;3.90;;;2.20;;
78750;SDS011;68070;50.954;11.060;2023-11-21T05:24:19;2.60;;;1.90;;
78750;SDS011;68070;50.954;11.060;2023-11-21T05:29:10;3.20;;;2.00;;
78750;SDS011;68070;50.954;11.060;2023-11-21T05:31:36;3.60;;;2.10;;
78750;SDS011;68070;50.954;11.060;2023-11-21T05:34:03;3.80;;;2.10;;
78750;SDS011;68070;50.954;11.060;2023-11-21T05:36:30;6.80;;;3.90;;
78750;SDS011;68070;50.954;11.060;2023-11-21T05:38:56;10.50;;;4.30;;
78750;SDS011;68070;50.954;11.060;2023-11-21T05:43:46;7.20;;;3.40;;
78750;SDS011;68070;50.954;11.060;2023-11-21T05:46:12;6.60;;;3.30;;
78750;SDS011;68070;50.954;11.060;2023-11-21T05:48:38;5.30;;;3.10;;
78750;SDS011;68070;50.954;11.060;2023-11-21T05:51:06;4.40;;;2.60;;
78750;SDS011;68070;50.954;11.060;2023-11-21T05:53:31;4.00;;;2.20;;
78750;SDS011;68070;50.954;11.060;2023-11-21T05:58:22;4.60;;;2.30;;
78750;SDS011;68070;50.954;11.060;2023-11-21T06:00:49;8.30;;;3.30;;
78750;SDS011;68070;50.954;11.060;2023-11-21T06:03:14;4.40;;;3.00;;
78750;SDS011;68070;50.954;11.060;2023-11-21T06:05:40;5.10;;;3.10;;
78750;SDS011;68070;50.954;11.060;2023-11-21T06:08:05;4.80;;;3.60;;
78750;SDS011;68070;50.954;11.060;2023-11-21T06:10:36;10.00;;;4.00;;
78750;SDS011;68070;50.954;11.060;2023-11-21T06:13:01;7.30;;;3.80;;
78750;SDS011;68070;50.954;11.060;2023-11-21T06:15:29;6.20;;;3.50;;
78750;SDS011;68070;50.954;11.060;2023-11-21T06:17:54;6.10;;;3.80;;
78750;SDS011;68070;50.954;11.060;2023-11-21T06:20:20;5.80;;;3.10;;
78750;SDS011;68070;50.954;11.060;2023-11-21T06:22:48;5.00;;;2.60;;
78750;SDS011;68070;50.954;11.060;2023-11-21T06:25:15;5.80;;;2.60;;
78750;SDS011;68070;50.954;11.060;2023-11-21T06:27:47;5.90;;;2.50;;
78750;SDS011;68070;50.954;11.060;2023-11-21T06:30:14;4.40;;;2.70;;
78750;SDS011;68070;50.954;11.060;2023-11-21T06:32:40;6.30;;;2.70;;
78750;SDS011;68070;50.954;11.060;2023-11-21T06:35:07;4.70;;;3.30;;
78750;SDS011;68070;50.954;11.060;2023-11-21T06:37:35;7.80;;;3.00;;
78750;SDS011;68070;50.954;11.060;2023-11-21T06:40:01;3.70;;;2.60;;
78750;SDS011;68070;50.954;11.060;2023-11-21T06:42:29;9.10;;;4.00;;
78750;SDS011;68070;50.954;11.060;2023-11-21T06:44:54;10.90;;;5.10;;
78750;SDS011;68070;50.954;11.060;2023-11-21T06:47:26;10.80;;;5.00;;
78750;SDS011;68070;50.954;11.060;2023-11-21T06:49:51;10.60;;;5.00;;
78750;SDS011;68070;50.954;11.060;2023-11-21T06:52:20;7.60;;;4.60;;
78750;SDS011;68070;50.954;11.060;2023-11-21T06:54:47;7.70;;;4.30;;
78750;SDS011;68070;50.954;11.060;2023-11-21T06:57:14;8.10;;;3.90;;
78750;SDS011;68070;50.954;11.060;2023-11-21T07:02:05;7.00;;;3.80;;
78750;SDS011;68070;50.954;11.060;2023-11-21T07:04:34;6.30;;;3.40;;
78750;SDS011;68070;50.954;11.060;2023-11-21T07:07:03;6.20;;;3.90;;
78750;SDS011;68070;50.954;11.060;2023-11-21T07:09:29;7.80;;;4.20;;
78750;SDS011;68070;50.954;11.060;2023-11-21T07:11:55;15.20;;;7.30;;
78750;SDS011;68070;50.954;11.060;2023-11-21T07:16:47;13.50;;;6.00;;
78750;SDS011;68070;50.954;11.060;2023-11-21T07:19:12;8.80;;;5.20;;
78750;SDS011;68070;50.954;11.060;2023-11-21T07:21:39;10.90;;;5.40;;
78750;SDS011;68070;50.954;11.060;2023-11-21T07:24:05;7.80;;;4.60;;
78750;SDS011;68070;50.954;11.060;2023-11-21T07:26:32;7.40;;;4.60;;
78750;SDS011;68070;50.954;11.060;2023-11-21T07:29:01;10.00;;;4.40;;
78750;SDS011;68070;50.954;11.060;2023-11-21T07:31:27;6.10;;;3.90;;
78750;SDS011;68070;50.954;11.060;2023-11-21T07:33:55;7.20;;;4.20;;
78750;SDS011;68070;50.954;11.060;2023-11-21T07:36:24;7.90;;;4.50;;
78750;SDS011;68070;50.954;11.060;2023-11-21T07:38:49;6.20;;;4.00;;
78750;SDS011;68070;50.954;11.060;2023-11-21T07:41:17;7.90;;;4.60;;
78750;SDS011;68070;50.954;11.060;2023-11-21T07:43:43;11.40;;;6.20;;
78750;SDS011;68070;50.954;11.060;2023-11-21T07:46:10;6.90;;;4.70;;
78750;SDS011;68070;50.954;11.060;2023-11-21T07:48:38;7.70;;;4.40;;
78750;SDS011;68070;50.954;11.060;2023-11-21T07:51:04;5.60;;;3.10;;
78750;SDS011;68070;50.954;11.060;2023-11-21T07:53:30;6.40;;;3.90;;
78750;SDS011;68070;50.954;11.060;2023-11-21T07:55:56;5.80;;;3.40;;
78750;SDS011;68070;50.954;11.060;2023-11-21T07:58:23;6.90;;;3.90;;
78750;SDS011;68070;50.954;11.060;2023-11-21T08:00:49;7.00;;;4.30;;
78750;SDS011;68070;50.954;11.060;2023-11-21T08:03:15;5.30;;;4.10;;
78750;SDS011;68070;50.954;11.060;2023-11-21T08:05:41;7.00;;;4.60;;
78750;SDS011;68070;50.954;11.060;2023-11-21T08:08:06;9.00;;;4.70;;
78750;SDS011;68070;50.954;11.060;2023-11-21T08:10:33;12.30;;;5.50;;
78750;SDS011;68070;50.954;11.060;2023-11-21T08:12:58;8.90;;;5.00;;
78750;SDS011;68070;50.954;11.060;2023-11-21T08:15:24;9.60;;;5.10;;
78750;SDS011;68070;50.954;11.060;2023-11-21T08:17:50;8.00;;;4.60;;
78750;SDS011;68070;50.954;11.060;2023-11-21T08:20:16;10.00;;;5.00;;
78750;SDS011;68070;50.954;11.060;2023-11-21T08:22:45;7.10;;;4.10;;
78750;SDS011;68070;50.954;11.060;2023-11-21T08:25:12;6.40;;;3.70;;
78750;SDS011;68070;50.954;11.060;2023-11-21T08:27:39;5.20;;;3.40;;
78750;SDS011;68070;50.954;11.060;2023-11-21T08:30:05;6.10;;;3.70;;
78750;SDS011;68070;50.954;11.060;2023-11-21T08:32:32;7.10;;;4.10;;
78750;SDS011;68070;50.954;11.060;2023-11-21T08:34:58;5.20;;;3.80;;
78750;SDS011;68070;50.954;11.060;2023-11-21T08:37:25;8.40;;;4.30;;
78750;SDS011;68070;50.954;11.060;2023-11-21T08:39:52;6.40;;;4.80;;
78750;SDS011;68070;50.954;11.060;2023-11-21T08:42:19;7.00;;;4.40;;
78750;SDS011;68070;50.954;11.060;2023-11-21T08:44:45;8.40;;;4.90;;
78750;SDS011;68070;50.954;11.060;2023-11-21T08:47:11;7.10;;;4.10;;
78750;SDS011;68070;50.954;11.060;2023-11-21T08:49:36;7.60;;;4.60;;
78750;SDS011;68070;50.954;11.060;2023-11-21T08:52:03;7.10;;;4.00;;
78750;SDS011;68070;50.954;11.060;2023-11-21T08:54:30;8.70;;;4.00;;
78750;SDS011;68070;50.954;11.060;2023-11-21T08:56:56;6.40;;;3.40;;
78750;SDS011;68070;50.954;11.060;2023-11-21T08:59:23;8.20;;;4.20;;
78750;SDS011;68070;50.954;11.060;2023-11-21T09:01:49;6.20;;;3.50;;
78750;SDS011;68070;50.954;11.060;2023-11-21T09:04:16;5.70;;;3.50;;
78750;SDS011;68070;50.954;11.060;2023-11-21T09:06:41;4.70;;;2.80;;
78750;SDS011;68070;50.954;11.060;2023-11-21T09:09:07;5.20;;;3.50;;
78750;SDS011;68070;50.954;11.060;2023-11-21T09:11:33;5.80;;;3.40;;
78750;SDS011;68070;50.954;11.060;2023-11-21T09:14:02;7.10;;;3.50;;
78750;SDS011;68070;50.954;11.060;2023-11-21T09:16:30;6.10;;;3.80;;
78750;SDS011;68070;50.954;11.060;2023-11-21T09:18:57;8.10;;;4.30;;
78750;SDS011;68070;50.954;11.060;2023-11-21T09:21:24;6.70;;;4.40;;
78750;SDS011;68070;50.954;11.060;2023-11-21T09:23:50;6.40;;;3.70;;
78750;SDS011;68070;50.954;11.060;2023-11-21T09:26:16;7.30;;;4.30;;
78750;SDS011;68070;50.954;11.060;2023-11-21T09:28:43;7.40;;;3.60;;
78750;SDS011;68070;50.954;11.060;2023-11-21T09:31:12;7.10;;;3.80;;
78750;SDS011;68070;50.954;11.060;2023-11-21T09:33:40;7.60;;;4.90;;
78750;SDS011;68070;50.954;11.060;2023-11-21T09:36:10;7.40;;;4.80;;
78750;SDS011;68070;50.954;11.060;2023-11-21T09:38:37;8.10;;;4.50;;
78750;SDS011;68070;50.954;11.060;2023-11-21T09:41:04;7.30;;;3.50;;
78750;SDS011;68070;50.954;11.060;2023-11-21T09:43:37;8.70;;;4.10;;
78750;SDS011;68070;50.954;11.060;2023-11-21T09:46:04;8.30;;;4.00;;
78750;SDS011;68070;50.954;11.060;2023-11-21T09:48:36;10.30;;;4.20;;
78750;SDS011;68070;50.954;11.060;2023-11-21T09:51:04;4.80;;;3.30;;
78750;SDS011;68070;50.954;11.060;2023-11-21T09:53:31;6.80;;;4.40;;
78750;SDS011;68070;50.954;11.060;2023-11-21T09:55:58;7.40;;;4.40;;
78750;SDS011;68070;50.954;11.060;2023-11-21T09:58:25;7.00;;;4.10;;
78750;SDS011;68070;50.954;11.060;2023-11-21T10:00:55;6.80;;;4.20;;
78750;SDS011;68070;50.954;11.060;2023-11-21T10:03:25;9.40;;;4.20;;
78750;SDS011;68070;50.954;11.060;2023-11-21T10:05:51;7.10;;;4.20;;
78750;SDS011;68070;50.954;11.060;2023-11-21T10:08:18;9.60;;;3.70;;
78750;SDS011;68070;50.954;11.060;2023-11-21T10:10:45;9.40;;;4.20;;
78750;SDS011;68070;50.954;11.060;2023-11-21T10:13:13;7.20;;;3.70;;
78750;SDS011;68070;50.954;11.060;2023-11-21T10:15:42;8.50;;;4.10;;
78750;SDS011;68070;50.954;11.060;2023-11-21T10:18:13;9.20;;;4.00;;
78750;SDS011;68070;50.954;11.060;2023-11-21T10:20:44;7.20;;;4.00;;
78750;SDS011;68070;50.954;11.060;2023-11-21T10:23:18;8.30;;;4.50;;
78750;SDS011;68070;50.954;11.060;2023-11-21T10:25:44;7.50;;;4.50;;
78750;SDS011;68070;50.954;11.060;2023-11-21T10:28:09;8.30;;;4.70;;
78750;SDS011;68070;50.954;11.060;2023-11-21T10:30:36;7.60;;;4.50;;
78750;SDS011;68070;50.954;11.060;2023-11-21T10:33:07;7.50;;;4.70;;
78750;SDS011;68070;50.954;11.060;2023-11-21T10:35:43;12.00;;;5.80;;
78750;SDS011;68070;50.954;11.060;2023-11-21T10:38:12;9.10;;;5.30;;
78750;SDS011;68070;50.954;11.060;2023-11-21T10:40:39;8.20;;;4.30;;
78750;SDS011;68070;50.954;11.060;2023-11-21T10:43:07;9.60;;;5.00;;
78750;SDS011;68070;50.954;11.060;2023-11-21T10:45:34;10.10;;;4.60;;
78750;SDS011;68070;50.954;11.060;2023-11-21T10:48:04;9.50;;;4.60;;
78750;SDS011;68070;50.954;11.060;2023-11-21T10:50:32;11.30;;;6.60;;
78750;SDS011;68070;50.954;11.060;2023-11-21T10:53:00;9.70;;;5.10;;
78750;SDS011;68070;50.954;11.060;2023-11-21T10:55:29;5.80;;;4.50;;
78750;SDS011;68070;50.954;11.060;2023-11-21T10:57:58;7.70;;;4.60;;
78750;SDS011;68070;50.954;11.060;2023-11-21T11:00:26;8.30;;;4.60;;
78750;SDS011;68070;50.954;11.060;2023-11-21T11:02:53;9.20;;;5.30;;
78750;SDS011;68070;50.954;11.060;2023-11-21T11:05:21;11.10;;;4.80;;
78750;SDS011;68070;50.954;11.060;2023-11-21T11:10:29;8.20;;;5.60;;
78750;SDS011;68070;50.954;11.060;2023-11-21T11:12:55;10.80;;;7.90;;
78750;SDS011;68070;50.954;11.060;2023-11-21T11:15:25;8.20;;;5.40;;
78750;SDS011;68070;50.954;11.060;2023-11-21T11:17:52;8.30;;;5.60;;
78750;SDS011;68070;50.954;11.060;2023-11-21T11:20:25;10.70;;;5.10;;
78750;SDS011;68070;50.954;11.060;2023-11-21T11:25:35;9.40;;;5.30;;
78750;SDS011;68070;50.954;11.060;2023-11-21T11:28:13;9.60;;;5.60;;
78750;SDS011;68070;50.954;11.060;2023-11-21T11:33:52;9.90;;;5.50;;
78750;SDS011;68070;50.954;11.060;2023-11-21T11:36:29;8.90;;;5.40;;
78750;SDS011;68070;50.954;11.060;2023-11-21T11:39:03;8.70;;;5.10;;
78750;SDS011;68070;50.954;11.060;2023-11-21T11:41:48;8.80;;;5.20;;
78750;SDS011;68070;50.954;11.060;2023-11-21T11:47:25;8.60;;;6.30;;
78750;SDS011;68070;50.954;11.060;2023-11-21T11:50:02;14.30;;;7.20;;
78750;SDS011;68070;50.954;11.060;2023-11-21T11:52:33;8.40;;;5.60;;
78750;SDS011;68070;50.954;11.060;2023-11-21T11:55:00;9.30;;;6.30;;
78750;SDS011;68070;50.954;11.060;2023-11-21T11:57:30;10.30;;;6.30;;
78750;SDS011;68070;50.954;11.060;2023-11-21T12:02:47;12.80;;;7.30;;
78750;SDS011;68070;50.954;11.060;2023-11-21T12:05:14;12.20;;;8.00;;
78750;SDS011;68070;50.954;11.060;2023-11-21T12:07:47;13.50;;;7.30;;
78750;SDS011;68070;50.954;11.060;2023-11-21T12:10:19;13.60;;;7.40;;
78750;SDS011;68070;50.954;11.060;2023-11-21T12:12:48;11.50;;;6.90;;
78750;SDS011;68070;50.954;11.060;2023-11-21T12:15:15;12.20;;;6.20;;
78750;SDS011;68070;50.954;11.060;2023-11-21T12:17:42;14.50;;;7.20;;
78750;SDS011;68070;50.954;11.060;2023-11-21T12:20:09;10.40;;;6.20;;
78750;SDS011;68070;50.954;11.060;2023-11-21T12:22:48;12.00;;;6.90;;
78750;SDS011;68070;50.954;11.060;2023-11-21T12:27:43;9.50;;;5.50;;
78750;SDS011;68070;50.954;11.060;2023-11-21T12:30:14;7.70;;;5.00;;
78750;SDS011;68070;50.954;11.060;2023-11-21T12:32:49;7.60;;;5.20;;
78750;SDS011;68070;50.954;11.060;2023-11-21T12:35:19;8.70;;;5.50;;
78750;SDS011;68070;50.954;11.060;2023-11-21T12:37:47;10.70;;;5.20;;
78750;SDS011;68070;50.954;11.060;2023-11-21T12:40:13;10.20;;;4.80;;
78750;SDS011;68070;50.954;11.060;2023-11-21T12:42:43;7.50;;;4.80;;
78750;SDS011;68070;50.954;11.060;2023-11-21T12:47:48;9.20;;;5.00;;
78750;SDS011;68070;50.954;11.060;2023-11-21T12:50:18;6.40;;;3.80;;
78750;SDS011;68070;50.954;11.060;2023-11-21T12:52:48;6.90;;;3.90;;
78750;SDS011;68070;50.954;11.060;2023-11-21T12:55:18;6.30;;;3.60;;
78750;SDS011;68070;50.954;11.060;2023-11-21T12:57:50;6.50;;;4.10;;
78750;SDS011;68070;50.954;11.060;2023-11-21T13:00:20;7.20;;;3.80;;
78750;SDS011;68070;50.954;11.060;2023-11-21T13:02:53;7.50;;;4.00;;
78750;SDS011;68070;50.954;11.060;2023-11-21T13:05:23;6.50;;;3.60;;
78750;SDS011;68070;50.954;11.060;2023-11-21T13:07:50;9.10;;;5.30;;
78750;SDS011;68070;50.954;11.060;2023-11-21T13:10:19;9.20;;;5.40;;
78750;SDS011;68070;50.954;11.060;2023-11-21T13:12:51;8.10;;;5.20;;
78750;SDS011;68070;50.954;11.060;2023-11-21T13:15:17;7.70;;;4.40;;
78750;SDS011;68070;50.954;11.060;2023-11-21T13:17:43;9.50;;;4.90;;
78750;SDS011;68070;50.954;11.060;2023-11-21T13:20:10;8.00;;;4.30;;
78750;SDS011;68070;50.954;11.060;2023-11-21T13:22:47;5.80;;;4.00;;
78750;SDS011;68070;50.954;11.060;2023-11-21T13:25:23;4.80;;;3.10;;
78750;SDS011;68070;50.954;11.060;2023-11-21T13:27:49;4.90;;;3.00;;
78750;SDS011;68070;50.954;11.060;2023-11-21T13:30:17;6.00;;;3.10;;
78750;SDS011;68070;50.954;11.060;2023-11-21T13:32:48;5.60;;;3.30;;
78750;SDS011;68070;50.954;11.060;2023-11-21T13:35:16;7.20;;;4.30;;
78750;SDS011;68070;50.954;11.060;2023-11-21T13:37:49;7.60;;;3.50;;
78750;SDS011;68070;50.954;11.060;2023-11-21T13:40:20;5.90;;;2.70;;
78750;SDS011;68070;50.954;11.060;2023-11-21T13:42:51;4.30;;;2.40;;
78750;SDS011;68070;50.954;11.060;2023-11-21T13:45:26;3.50;;;2.20;;
78750;SDS011;68070;50.954;11.060;2023-11-21T13:47:53;4.60;;;2.10;;
78750;SDS011;68070;50.954;11.060;2023-11-21T13:50:26;5.50;;;2.60;;
78750;SDS011;68070;50.954;11.060;2023-11-21T13:52:55;4.70;;;2.90;;
78750;SDS011;68070;50.954;11.060;2023-11-21T13:55:21;5.00;;;2.60;;
78750;SDS011;68070;50.954;11.060;2023-11-21T13:57:50;4.50;;;3.30;;
78750;SDS011;68070;50.954;11.060;2023-11-21T14:00:17;6.60;;;3.30;;
78750;SDS011;68070;50.954;11.060;2023-11-21T14:03:02;6.60;;;3.10;;
78750;SDS011;68070;50.954;11.060;2023-11-21T14:05:34;5.30;;;3.30;;
78750;SDS011;68070;50.954;11.060;2023-11-21T14:08:00;5.20;;;3.20;;
78750;SDS011;68070;50.954;11.060;2023-11-21T14:10:30;6.40;;;3.70;;
78750;SDS011;68070;50.954;11.060;2023-11-21T14:13:05;7.50;;;3.50;;
78750;SDS011;68070;50.954;11.060;2023-11-21T14:15:31;6.60;;;4.20;;
78750;SDS011;68070;50.954;11.060;2023-11-21T14:18:02;6.70;;;4.00;;
78750;SDS011;68070;50.954;11.060;2023-11-21T14:20:33;6.20;;;4.00;;
78750;SDS011;68070;50.954;11.060;2023-11-21T14:23:01;5.70;;;3.40;;
78750;SDS011;68070;50.954;11.060;2023-11-21T14:25:27;6.00;;;4.40;;
78750;SDS011;68070;50.954;11.060;2023-11-21T14:27:54;8.70;;;4.40;;
78750;SDS011;68070;50.954;11.060;2023-11-21T14:30:21;8.50;;;6.00;;
78750;SDS011;68070;50.954;11.060;2023-11-21T14:32:48;9.80;;;6.10;;
78750;SDS011;68070;50.954;11.060;2023-11-21T14:35:15;11.10;;;7.30;;
78750;SDS011;68070;50.954;11.060;2023-11-21T14:37:42;11.40;;;6.20;;
78750;SDS011;68070;50.954;11.060;2023-11-21T14:40:08;14.20;;;9.10;;
78750;SDS011;68070;50.954;11.060;2023-11-21T14:42:35;16.10;;;9.10;;
78750;SDS011;68070;50.954;11.060;2023-11-21T14:45:05;10.90;;;7.60;;
78750;SDS011;68070;50.954;11.060;2023-11-21T14:47:32;11.60;;;8.40;;
78750;SDS011;68070;50.954;11.060;2023-11-21T14:50:02;13.50;;;9.00;;
78750;SDS011;68070;50.954;11.060;2023-11-21T14:52:48;14.10;;;9.10;;
78750;SDS011;68070;50.954;11.060;2023-11-21T14:55:21;14.40;;;7.90;;
78750;SDS011;68070;50.954;11.060;2023-11-21T14:57:57;12.70;;;8.60;;
78750;SDS011;68070;50.954;11.060;2023-11-21T15:00:27;12.60;;;8.90;;
78750;SDS011;68070;50.954;11.060;2023-11-21T15:02:59;12.20;;;7.60;;
78750;SDS011;68070;50.954;11.060;2023-11-21T15:05:25;14.00;;;9.00;;
78750;SDS011;68070;50.954;11.060;2023-11-21T15:07:55;13.60;;;8.60;;
78750;SDS011;68070;50.954;11.060;2023-11-21T15:10:24;13.00;;;7.90;;
78750;SDS011;68070;50.954;11.060;2023-11-21T15:13:10;12.50;;;8.50;;
78750;SDS011;68070;50.954;11.060;2023-11-21T15:15:36;11.10;;;7.80;;
78750;SDS011;68070;50.954;11.060;2023-11-21T15:18:03;12.00;;;8.40;;
78750;SDS011;68070;50.954;11.060;2023-11-21T15:20:30;12.40;;;7.50;;
78750;SDS011;68070;50.954;11.060;2023-11-21T15:22:56;11.80;;;7.20;;